Minneapolis, Minnesota
Traffic Map
Current Weather Conditions
Minneapolis, Minnesota
Few Clouds
Few Clouds
66°
Feels Like: 66°
Wind Chill: 66° Ceiling: Unl
Heat Index: 66° Visibility: 10mi
Dew Point: 47° Wind: 6mph
Humidity: 50% Direction: 330° (NNW)
Pressure: 30.2in Gusts: 0mph
Raw Report DataKMSP 011653Z 33005KT 10SM FEW030 FEW250 19/08 A3020 RMK AO2 SLP224 T01890083
Traffic Incident Summary
Active as of:
Severity:
Category:
InformationThere was an issue retrieving the traffic information for this location. Please try a different location or try again shortly.
Advertisements
Track Severe Weather on mobile